sensor_id;sensor_type;location;lat;lon;timestamp;temperature;humidity
9177;DHT22;4623;54.310;10.112;2022-12-18T00:01:46;-3.40;99.90
9177;DHT22;4623;54.310;10.112;2022-12-18T00:04:23;-3.40;99.90
9177;DHT22;4623;54.310;10.112;2022-12-18T00:06:50;-3.40;99.90
9177;DHT22;4623;54.310;10.112;2022-12-18T00:09:16;-3.40;99.90
9177;DHT22;4623;54.310;10.112;2022-12-18T00:11:42;-3.40;99.90
9177;DHT22;4623;54.310;10.112;2022-12-18T00:14:10;-3.50;99.90
9177;DHT22;4623;54.310;10.112;2022-12-18T00:16:36;-3.50;99.90
9177;DHT22;4623;54.310;10.112;2022-12-18T00:19:02;-3.50;99.90
9177;DHT22;4623;54.310;10.112;2022-12-18T00:21:29;-3.50;99.90
9177;DHT22;4623;54.310;10.112;2022-12-18T00:23:55;-3.60;99.90
9177;DHT22;4623;54.310;10.112;2022-12-18T00:26:23;-3.50;99.90
9177;DHT22;4623;54.310;10.112;2022-12-18T00:28:49;-3.60;99.90
9177;DHT22;4623;54.310;10.112;2022-12-18T00:31:18;-3.60;99.90
9177;DHT22;4623;54.310;10.112;2022-12-18T00:33:44;-3.60;99.90
9177;DHT22;4623;54.310;10.112;2022-12-18T00:36:13;-3.60;99.90
9177;DHT22;4623;54.310;10.112;2022-12-18T00:38:39;-3.60;99.90
9177;DHT22;4623;54.310;10.112;2022-12-18T00:41:07;-3.60;99.90
9177;DHT22;4623;54.310;10.112;2022-12-18T00:43:32;-3.60;99.90
9177;DHT22;4623;54.310;10.112;2022-12-18T00:45:59;-3.60;99.90
9177;DHT22;4623;54.310;10.112;2022-12-18T00:48:25;-3.60;99.90
9177;DHT22;4623;54.310;10.112;2022-12-18T00:50:51;-3.70;99.90
9177;DHT22;4623;54.310;10.112;2022-12-18T00:53:17;-3.70;99.90
9177;DHT22;4623;54.310;10.112;2022-12-18T00:55:44;-3.70;99.90
9177;DHT22;4623;54.310;10.112;2022-12-18T00:58:11;-3.70;99.90
9177;DHT22;4623;54.310;10.112;2022-12-18T01:00:37;-3.70;99.90
9177;DHT22;4623;54.310;10.112;2022-12-18T01:03:04;-3.70;99.90
9177;DHT22;4623;54.310;10.112;2022-12-18T01:05:30;-3.80;99.90
9177;DHT22;4623;54.310;10.112;2022-12-18T01:07:56;-3.80;99.90
9177;DHT22;4623;54.310;10.112;2022-12-18T01:10:21;-3.90;99.90
9177;DHT22;4623;54.310;10.112;2022-12-18T01:12:47;-3.80;99.90
9177;DHT22;4623;54.310;10.112;2022-12-18T01:15:13;-3.90;99.90
9177;DHT22;4623;54.310;10.112;2022-12-18T01:17:39;-3.90;99.90
9177;DHT22;4623;54.310;10.112;2022-12-18T01:20:05;-3.90;99.90
9177;DHT22;4623;54.310;10.112;2022-12-18T01:22:31;-3.80;99.90
9177;DHT22;4623;54.310;10.112;2022-12-18T01:24:57;-3.80;99.90
9177;DHT22;4623;54.310;10.112;2022-12-18T01:27:22;-3.80;99.90
9177;DHT22;4623;54.310;10.112;2022-12-18T01:29:49;-3.70;99.90
9177;DHT22;4623;54.310;10.112;2022-12-18T01:32:14;-3.80;99.90
9177;DHT22;4623;54.310;10.112;2022-12-18T01:34:40;-3.80;99.90
9177;DHT22;4623;54.310;10.112;2022-12-18T01:37:05;-3.90;99.90
9177;DHT22;4623;54.310;10.112;2022-12-18T01:39:31;-3.90;99.90
9177;DHT22;4623;54.310;10.112;2022-12-18T01:41:58;-3.90;99.90
9177;DHT22;4623;54.310;10.112;2022-12-18T01:47:39;-3.90;99.90
9177;DHT22;4623;54.310;10.112;2022-12-18T01:52:34;-3.90;99.90
9177;DHT22;4623;54.310;10.112;2022-12-18T01:55:01;-3.90;99.90
9177;DHT22;4623;54.310;10.112;2022-12-18T01:57:28;-3.90;99.90
9177;DHT22;4623;54.310;10.112;2022-12-18T01:59:57;-3.90;99.90
9177;DHT22;4623;54.310;10.112;2022-12-18T02:02:24;-3.90;99.90
9177;DHT22;4623;54.310;10.112;2022-12-18T02:04:51;-3.90;99.90
9177;DHT22;4623;54.310;10.112;2022-12-18T02:07:23;-3.90;99.90
9177;DHT22;4623;54.310;10.112;2022-12-18T02:09:58;-4.00;99.90
9177;DHT22;4623;54.310;10.112;2022-12-18T02:12:29;-4.00;99.90
9177;DHT22;4623;54.310;10.112;2022-12-18T02:17:48;-3.90;99.90
9177;DHT22;4623;54.310;10.112;2022-12-18T02:23:32;-3.90;99.90
9177;DHT22;4623;54.310;10.112;2022-12-18T02:28:42;-3.90;99.90
9177;DHT22;4623;54.310;10.112;2022-12-18T02:31:13;-3.90;99.90
9177;DHT22;4623;54.310;10.112;2022-12-18T02:33:40;-3.90;99.90
9177;DHT22;4623;54.310;10.112;2022-12-18T02:36:08;-3.90;99.90
9177;DHT22;4623;54.310;10.112;2022-12-18T02:38:34;-3.90;99.90
9177;DHT22;4623;54.310;10.112;2022-12-18T02:41:00;-3.90;99.90
9177;DHT22;4623;54.310;10.112;2022-12-18T02:43:27;-4.00;99.90
9177;DHT22;4623;54.310;10.112;2022-12-18T02:45:58;-3.90;99.90
9177;DHT22;4623;54.310;10.112;2022-12-18T02:48:27;-3.90;99.90
9177;DHT22;4623;54.310;10.112;2022-12-18T02:51:18;-3.90;99.90
9177;DHT22;4623;54.310;10.112;2022-12-18T02:53:58;-4.00;99.90
9177;DHT22;4623;54.310;10.112;2022-12-18T02:56:35;-4.00;99.90
9177;DHT22;4623;54.310;10.112;2022-12-18T02:59:02;-4.00;99.90
9177;DHT22;4623;54.310;10.112;2022-12-18T03:04:14;-4.10;99.90
9177;DHT22;4623;54.310;10.112;2022-12-18T03:06:44;-4.00;99.90
9177;DHT22;4623;54.310;10.112;2022-12-18T03:09:17;-4.00;99.90
9177;DHT22;4623;54.310;10.112;2022-12-18T03:11:47;-4.00;99.90
9177;DHT22;4623;54.310;10.112;2022-12-18T03:14:36;-4.00;99.90
9177;DHT22;4623;54.310;10.112;2022-12-18T03:17:06;-4.00;99.90
9177;DHT22;4623;54.310;10.112;2022-12-18T03:19:38;-4.00;99.90
9177;DHT22;4623;54.310;10.112;2022-12-18T03:22:06;-4.00;99.90
9177;DHT22;4623;54.310;10.112;2022-12-18T03:24:33;-4.00;99.90
9177;DHT22;4623;54.310;10.112;2022-12-18T03:27:04;-4.00;99.90
9177;DHT22;4623;54.310;10.112;2022-12-18T03:29:35;-4.00;99.90
9177;DHT22;4623;54.310;10.112;2022-12-18T03:32:05;-4.00;99.90
9177;DHT22;4623;54.310;10.112;2022-12-18T03:34:35;-3.90;99.90
9177;DHT22;4623;54.310;10.112;2022-12-18T03:37:02;-4.00;99.90
9177;DHT22;4623;54.310;10.112;2022-12-18T03:39:28;-4.00;99.90
9177;DHT22;4623;54.310;10.112;2022-12-18T03:42:22;-4.00;99.90
9177;DHT22;4623;54.310;10.112;2022-12-18T03:45:02;-4.00;99.90
9177;DHT22;4623;54.310;10.112;2022-12-18T03:48:02;-4.00;99.90
9177;DHT22;4623;54.310;10.112;2022-12-18T03:55:43;-4.00;99.90
9177;DHT22;4623;54.310;10.112;2022-12-18T03:58:13;-4.00;99.90
9177;DHT22;4623;54.310;10.112;2022-12-18T04:00:41;-4.00;99.90
9177;DHT22;4623;54.310;10.112;2022-12-18T04:03:08;-4.10;99.90
9177;DHT22;4623;54.310;10.112;2022-12-18T04:05:36;-4.10;99.90
9177;DHT22;4623;54.310;10.112;2022-12-18T04:08:02;-4.10;99.90
9177;DHT22;4623;54.310;10.112;2022-12-18T04:10:29;-4.10;99.90
9177;DHT22;4623;54.310;10.112;2022-12-18T04:12:56;-4.10;99.90
9177;DHT22;4623;54.310;10.112;2022-12-18T04:15:22;-4.10;99.90
9177;DHT22;4623;54.310;10.112;2022-12-18T04:17:49;-4.20;99.90
9177;DHT22;4623;54.310;10.112;2022-12-18T04:20:15;-4.20;99.90
9177;DHT22;4623;54.310;10.112;2022-12-18T04:22:40;-4.20;99.90
9177;DHT22;4623;54.310;10.112;2022-12-18T04:25:06;-4.20;99.90
9177;DHT22;4623;54.310;10.112;2022-12-18T04:27:32;-4.20;99.90
9177;DHT22;4623;54.310;10.112;2022-12-18T04:29:57;-4.20;99.90
9177;DHT22;4623;54.310;10.112;2022-12-18T04:32:23;-4.20;99.90
9177;DHT22;4623;54.310;10.112;2022-12-18T04:34:48;-4.20;99.90
9177;DHT22;4623;54.310;10.112;2022-12-18T04:37:14;-4.20;99.90
9177;DHT22;4623;54.310;10.112;2022-12-18T04:39:39;-4.20;99.90
9177;DHT22;4623;54.310;10.112;2022-12-18T04:42:05;-4.30;99.90
9177;DHT22;4623;54.310;10.112;2022-12-18T04:44:30;-4.30;99.90
9177;DHT22;4623;54.310;10.112;2022-12-18T04:46:56;-4.30;99.90
9177;DHT22;4623;54.310;10.112;2022-12-18T04:49:22;-4.30;99.90
9177;DHT22;4623;54.310;10.112;2022-12-18T04:51:47;-4.30;99.90
9177;DHT22;4623;54.310;10.112;2022-12-18T04:54:13;-4.30;99.90
9177;DHT22;4623;54.310;10.112;2022-12-18T04:56:38;-4.30;99.90
9177;DHT22;4623;54.310;10.112;2022-12-18T04:59:04;-4.30;99.90
9177;DHT22;4623;54.310;10.112;2022-12-18T05:01:30;-4.30;99.90
9177;DHT22;4623;54.310;10.112;2022-12-18T05:03:55;-4.30;99.90
9177;DHT22;4623;54.310;10.112;2022-12-18T05:06:21;-4.30;99.90
9177;DHT22;4623;54.310;10.112;2022-12-18T05:08:46;-4.30;99.90
9177;DHT22;4623;54.310;10.112;2022-12-18T05:11:13;-4.30;99.90
9177;DHT22;4623;54.310;10.112;2022-12-18T05:13:41;-4.30;99.90
9177;DHT22;4623;54.310;10.112;2022-12-18T05:16:07;-4.30;99.90
9177;DHT22;4623;54.310;10.112;2022-12-18T05:18:33;-4.30;99.90
9177;DHT22;4623;54.310;10.112;2022-12-18T05:20:58;-4.30;99.90
9177;DHT22;4623;54.310;10.112;2022-12-18T05:23:24;-4.30;99.90
9177;DHT22;4623;54.310;10.112;2022-12-18T05:25:57;-4.30;99.90
9177;DHT22;4623;54.310;10.112;2022-12-18T05:28:24;-4.30;99.90
9177;DHT22;4623;54.310;10.112;2022-12-18T05:30:56;-4.30;99.90
9177;DHT22;4623;54.310;10.112;2022-12-18T05:33:24;-4.30;99.90
9177;DHT22;4623;54.310;10.112;2022-12-18T05:35:51;-4.30;99.90
9177;DHT22;4623;54.310;10.112;2022-12-18T05:38:17;-4.30;99.90
9177;DHT22;4623;54.310;10.112;2022-12-18T05:40:43;-4.30;99.90
9177;DHT22;4623;54.310;10.112;2022-12-18T05:43:09;-4.30;99.90
9177;DHT22;4623;54.310;10.112;2022-12-18T05:45:37;-4.30;99.90
9177;DHT22;4623;54.310;10.112;2022-12-18T05:48:03;-4.30;99.90
9177;DHT22;4623;54.310;10.112;2022-12-18T05:50:29;-4.30;99.90
9177;DHT22;4623;54.310;10.112;2022-12-18T05:52:55;-4.30;99.90
9177;DHT22;4623;54.310;10.112;2022-12-18T05:55:20;-4.30;99.90
9177;DHT22;4623;54.310;10.112;2022-12-18T05:57:46;-4.30;99.90
9177;DHT22;4623;54.310;10.112;2022-12-18T06:00:12;-4.30;99.90
9177;DHT22;4623;54.310;10.112;2022-12-18T06:02:37;-4.30;99.90
9177;DHT22;4623;54.310;10.112;2022-12-18T06:05:03;-4.40;99.90
9177;DHT22;4623;54.310;10.112;2022-12-18T06:07:29;-4.40;99.90
9177;DHT22;4623;54.310;10.112;2022-12-18T06:09:54;-4.40;99.90
9177;DHT22;4623;54.310;10.112;2022-12-18T06:12:20;-4.40;99.90
9177;DHT22;4623;54.310;10.112;2022-12-18T06:14:46;-4.40;99.90
9177;DHT22;4623;54.310;10.112;2022-12-18T06:17:11;-4.50;99.90
9177;DHT22;4623;54.310;10.112;2022-12-18T06:19:37;-4.50;99.90
9177;DHT22;4623;54.310;10.112;2022-12-18T06:22:03;-4.50;99.90
9177;DHT22;4623;54.310;10.112;2022-12-18T06:24:28;-4.50;99.90
9177;DHT22;4623;54.310;10.112;2022-12-18T06:26:54;-4.50;99.90
9177;DHT22;4623;54.310;10.112;2022-12-18T06:29:20;-4.50;99.90
9177;DHT22;4623;54.310;10.112;2022-12-18T06:31:45;-4.50;99.90
9177;DHT22;4623;54.310;10.112;2022-12-18T06:34:11;-4.50;99.90
9177;DHT22;4623;54.310;10.112;2022-12-18T06:36:36;-4.60;99.90
9177;DHT22;4623;54.310;10.112;2022-12-18T06:39:02;-4.60;99.90
9177;DHT22;4623;54.310;10.112;2022-12-18T06:41:28;-4.60;99.90
9177;DHT22;4623;54.310;10.112;2022-12-18T06:43:53;-4.60;99.90
9177;DHT22;4623;54.310;10.112;2022-12-18T06:46:19;-4.60;99.90
9177;DHT22;4623;54.310;10.112;2022-12-18T06:48:47;-4.60;99.90
9177;DHT22;4623;54.310;10.112;2022-12-18T06:51:19;-4.60;99.90
9177;DHT22;4623;54.310;10.112;2022-12-18T06:53:45;-4.60;99.90
9177;DHT22;4623;54.310;10.112;2022-12-18T06:56:11;-4.70;99.90
9177;DHT22;4623;54.310;10.112;2022-12-18T06:58:40;-4.70;99.90
9177;DHT22;4623;54.310;10.112;2022-12-18T07:01:08;-4.80;99.90
9177;DHT22;4623;54.310;10.112;2022-12-18T07:03:33;-4.80;99.90
9177;DHT22;4623;54.310;10.112;2022-12-18T07:05:59;-4.90;99.90
9177;DHT22;4623;54.310;10.112;2022-12-18T07:08:25;-4.90;99.90
9177;DHT22;4623;54.310;10.112;2022-12-18T07:10:50;-5.00;99.90
9177;DHT22;4623;54.310;10.112;2022-12-18T07:13:16;-5.00;99.90
9177;DHT22;4623;54.310;10.112;2022-12-18T07:15:42;-5.00;99.90
9177;DHT22;4623;54.310;10.112;2022-12-18T07:18:08;-5.00;99.90
9177;DHT22;4623;54.310;10.112;2022-12-18T07:20:33;-5.10;99.90
9177;DHT22;4623;54.310;10.112;2022-12-18T07:23:02;-5.10;99.90
9177;DHT22;4623;54.310;10.112;2022-12-18T07:25:28;-5.10;99.90
9177;DHT22;4623;54.310;10.112;2022-12-18T07:27:54;-5.10;99.90
9177;DHT22;4623;54.310;10.112;2022-12-18T07:30:19;-5.10;99.90
9177;DHT22;4623;54.310;10.112;2022-12-18T07:32:45;-5.00;99.90
9177;DHT22;4623;54.310;10.112;2022-12-18T07:35:10;-5.00;99.90
9177;DHT22;4623;54.310;10.112;2022-12-18T07:37:36;-5.10;99.90
9177;DHT22;4623;54.310;10.112;2022-12-18T07:40:01;-5.00;99.90
9177;DHT22;4623;54.310;10.112;2022-12-18T07:42:27;-5.10;99.90
9177;DHT22;4623;54.310;10.112;2022-12-18T07:44:56;-5.10;99.90
9177;DHT22;4623;54.310;10.112;2022-12-18T07:47:21;-5.10;99.90
9177;DHT22;4623;54.310;10.112;2022-12-18T07:49:47;-5.10;99.90
9177;DHT22;4623;54.310;10.112;2022-12-18T07:52:12;-5.10;99.90
9177;DHT22;4623;54.310;10.112;2022-12-18T07:54:38;-5.10;99.90
9177;DHT22;4623;54.310;10.112;2022-12-18T07:57:05;-5.10;99.90
9177;DHT22;4623;54.310;10.112;2022-12-18T07:59:31;-5.00;99.90
9177;DHT22;4623;54.310;10.112;2022-12-18T08:01:56;-5.00;99.90
9177;DHT22;4623;54.310;10.112;2022-12-18T08:04:22;-5.00;99.90
9177;DHT22;4623;54.310;10.112;2022-12-18T08:06:47;-5.00;99.90
9177;DHT22;4623;54.310;10.112;2022-12-18T08:09:13;-4.90;99.90
9177;DHT22;4623;54.310;10.112;2022-12-18T08:11:38;-4.80;99.90
9177;DHT22;4623;54.310;10.112;2022-12-18T08:14:04;-4.60;99.90
9177;DHT22;4623;54.310;10.112;2022-12-18T08:16:29;-4.40;99.90
9177;DHT22;4623;54.310;10.112;2022-12-18T08:18:55;-4.20;99.90
9177;DHT22;4623;54.310;10.112;2022-12-18T08:21:24;-4.30;99.90
9177;DHT22;4623;54.310;10.112;2022-12-18T08:23:51;-4.40;99.90
9177;DHT22;4623;54.310;10.112;2022-12-18T08:26:17;-4.50;99.90
9177;DHT22;4623;54.310;10.112;2022-12-18T08:28:42;-4.50;99.90
9177;DHT22;4623;54.310;10.112;2022-12-18T08:31:08;-4.60;99.90
9177;DHT22;4623;54.310;10.112;2022-12-18T08:33:34;-4.60;99.90
9177;DHT22;4623;54.310;10.112;2022-12-18T08:36:01;-4.60;99.90
9177;DHT22;4623;54.310;10.112;2022-12-18T08:38:27;-4.50;99.90
9177;DHT22;4623;54.310;10.112;2022-12-18T08:41:07;-4.50;99.90
9177;DHT22;4623;54.310;10.112;2022-12-18T08:43:33;-4.40;99.90
9177;DHT22;4623;54.310;10.112;2022-12-18T08:46:21;-4.40;99.90
9177;DHT22;4623;54.310;10.112;2022-12-18T08:48:51;-4.40;99.90
9177;DHT22;4623;54.310;10.112;2022-12-18T08:51:17;-4.40;99.90
9177;DHT22;4623;54.310;10.112;2022-12-18T08:53:43;-4.40;99.90
9177;DHT22;4623;54.310;10.112;2022-12-18T08:56:09;-4.30;99.90
9177;DHT22;4623;54.310;10.112;2022-12-18T08:58:35;-4.30;99.90
9177;DHT22;4623;54.310;10.112;2022-12-18T09:01:05;-4.20;99.90
9177;DHT22;4623;54.310;10.112;2022-12-18T09:03:31;-4.20;99.90
9177;DHT22;4623;54.310;10.112;2022-12-18T09:05:57;-4.10;99.90
9177;DHT22;4623;54.310;10.112;2022-12-18T09:08:22;-4.10;99.90
9177;DHT22;4623;54.310;10.112;2022-12-18T09:10:49;-4.00;99.90
9177;DHT22;4623;54.310;10.112;2022-12-18T09:13:16;-3.80;99.90
9177;DHT22;4623;54.310;10.112;2022-12-18T09:15:46;-3.70;99.90
9177;DHT22;4623;54.310;10.112;2022-12-18T09:18:13;-3.70;99.90
9177;DHT22;4623;54.310;10.112;2022-12-18T09:20:39;-3.70;99.90
9177;DHT22;4623;54.310;10.112;2022-12-18T09:23:05;-3.80;99.90
9177;DHT22;4623;54.310;10.112;2022-12-18T09:25:33;-3.90;99.90
9177;DHT22;4623;54.310;10.112;2022-12-18T09:27:59;-4.00;99.90
9177;DHT22;4623;54.310;10.112;2022-12-18T09:30:26;-4.00;99.90
9177;DHT22;4623;54.310;10.112;2022-12-18T09:32:51;-4.10;99.90
9177;DHT22;4623;54.310;10.112;2022-12-18T09:35:17;-4.10;99.90
9177;DHT22;4623;54.310;10.112;2022-12-18T09:37:42;-4.00;99.90
9177;DHT22;4623;54.310;10.112;2022-12-18T09:40:14;-3.90;99.90
9177;DHT22;4623;54.310;10.112;2022-12-18T09:42:40;-3.60;99.90
9177;DHT22;4623;54.310;10.112;2022-12-18T09:45:13;-3.40;99.90
9177;DHT22;4623;54.310;10.112;2022-12-18T09:47:40;-3.20;99.90
9177;DHT22;4623;54.310;10.112;2022-12-18T09:50:24;-3.10;99.90
9177;DHT22;4623;54.310;10.112;2022-12-18T09:52:54;-2.90;99.90
9177;DHT22;4623;54.310;10.112;2022-12-18T09:55:26;-2.90;99.90
9177;DHT22;4623;54.310;10.112;2022-12-18T09:57:57;-2.80;99.90
9177;DHT22;4623;54.310;10.112;2022-12-18T10:00:25;-2.70;99.90
9177;DHT22;4623;54.310;10.112;2022-12-18T10:03:00;-2.50;99.90
9177;DHT22;4623;54.310;10.112;2022-12-18T10:11:38;-2.30;99.90
9177;DHT22;4623;54.310;10.112;2022-12-18T10:14:23;-2.10;99.90
9177;DHT22;4623;54.310;10.112;2022-12-18T10:16:58;-1.70;99.90
9177;DHT22;4623;54.310;10.112;2022-12-18T10:22:10;0.90;99.90
9177;DHT22;4623;54.310;10.112;2022-12-18T10:24:47;3.20;99.90
9177;DHT22;4623;54.310;10.112;2022-12-18T10:27:16;4.50;91.00
9177;DHT22;4623;54.310;10.112;2022-12-18T10:29:44;4.60;85.60
9177;DHT22;4623;54.310;10.112;2022-12-18T10:32:18;4.00;90.30
9177;DHT22;4623;54.310;10.112;2022-12-18T10:34:49;3.60;93.10
9177;DHT22;4623;54.310;10.112;2022-12-18T10:37:20;2.80;96.20
9177;DHT22;4623;54.310;10.112;2022-12-18T10:39:47;1.90;98.40
9177;DHT22;4623;54.310;10.112;2022-12-18T10:42:29;1.20;99.90
9177;DHT22;4623;54.310;10.112;2022-12-18T10:45:09;0.80;99.90
9177;DHT22;4623;54.310;10.112;2022-12-18T10:47:35;1.50;99.90
9177;DHT22;4623;54.310;10.112;2022-12-18T10:50:01;1.40;99.90
9177;DHT22;4623;54.310;10.112;2022-12-18T10:52:27;1.30;99.90
9177;DHT22;4623;54.310;10.112;2022-12-18T10:54:54;1.50;99.90
9177;DHT22;4623;54.310;10.112;2022-12-18T10:59:57;0.80;99.90
9177;DHT22;4623;54.310;10.112;2022-12-18T11:02:37;0.90;99.90
9177;DHT22;4623;54.310;10.112;2022-12-18T11:05:23;1.50;99.90
9177;DHT22;4623;54.310;10.112;2022-12-18T11:07:50;1.00;99.90
9177;DHT22;4623;54.310;10.112;2022-12-18T11:10:20;0.80;99.90
9177;DHT22;4623;54.310;10.112;2022-12-18T11:12:46;0.80;99.90
9177;DHT22;4623;54.310;10.112;2022-12-18T11:15:26;0.80;99.90
9177;DHT22;4623;54.310;10.112;2022-12-18T11:17:53;1.10;99.90
9177;DHT22;4623;54.310;10.112;2022-12-18T11:20:30;2.50;99.90
9177;DHT22;4623;54.310;10.112;2022-12-18T11:23:04;3.90;96.80
9177;DHT22;4623;54.310;10.112;2022-12-18T11:25:32;3.40;93.70
9177;DHT22;4623;54.310;10.112;2022-12-18T11:28:00;2.00;99.90
9177;DHT22;4623;54.310;10.112;2022-12-18T11:30:30;1.20;99.90
9177;DHT22;4623;54.310;10.112;2022-12-18T11:33:01;0.70;99.90
9177;DHT22;4623;54.310;10.112;2022-12-18T11:38:00;0.00;99.90
9177;DHT22;4623;54.310;10.112;2022-12-18T11:40:36;-0.10;99.90
9177;DHT22;4623;54.310;10.112;2022-12-18T11:43:22;-0.10;99.90
9177;DHT22;4623;54.310;10.112;2022-12-18T11:46:03;-0.20;99.90
9177;DHT22;4623;54.310;10.112;2022-12-18T11:48:45;-0.40;99.90
9177;DHT22;4623;54.310;10.112;2022-12-18T11:51:15;-0.40;99.90
9177;DHT22;4623;54.310;10.112;2022-12-18T11:53:44;-0.50;99.90
9177;DHT22;4623;54.310;10.112;2022-12-18T11:56:43;0.10;99.90
9177;DHT22;4623;54.310;10.112;2022-12-18T11:59:25;0.50;99.90
9177;DHT22;4623;54.310;10.112;2022-12-18T12:01:55;0.50;99.90
9177;DHT22;4623;54.310;10.112;2022-12-18T12:10:09;0.40;99.90
9177;DHT22;4623;54.310;10.112;2022-12-18T12:15:43;0.20;99.90
9177;DHT22;4623;54.310;10.112;2022-12-18T12:23:55;-0.20;99.90
9177;DHT22;4623;54.310;10.112;2022-12-18T12:26:33;-0.40;99.90
9177;DHT22;4623;54.310;10.112;2022-12-18T12:32:08;-0.90;99.90
9177;DHT22;4623;54.310;10.112;2022-12-18T12:35:08;-0.90;99.90
9177;DHT22;4623;54.310;10.112;2022-12-18T12:40:26;-0.70;99.90
9177;DHT22;4623;54.310;10.112;2022-12-18T12:42:58;-0.80;99.90
9177;DHT22;4623;54.310;10.112;2022-12-18T12:45:58;-0.80;99.90
9177;DHT22;4623;54.310;10.112;2022-12-18T12:51:03;-1.10;99.90
9177;DHT22;4623;54.310;10.112;2022-12-18T12:53:35;-1.10;99.90
9177;DHT22;4623;54.310;10.112;2022-12-18T12:56:03;-1.00;99.90
9177;DHT22;4623;54.310;10.112;2022-12-18T13:01:40;-1.20;99.90
9177;DHT22;4623;54.310;10.112;2022-12-18T13:06:59;-0.90;99.90
9177;DHT22;4623;54.310;10.112;2022-12-18T13:09:33;-0.90;99.90
9177;DHT22;4623;54.310;10.112;2022-12-18T13:12:11;-1.00;99.90
9177;DHT22;4623;54.310;10.112;2022-12-18T13:15:19;-1.00;99.90
9177;DHT22;4623;54.310;10.112;2022-12-18T13:17:45;-1.10;99.90
9177;DHT22;4623;54.310;10.112;2022-12-18T13:20:13;-0.90;99.90
9177;DHT22;4623;54.310;10.112;2022-12-18T13:22:45;-1.00;99.90
9177;DHT22;4623;54.310;10.112;2022-12-18T13:25:32;-1.10;99.90
9177;DHT22;4623;54.310;10.112;2022-12-18T13:28:13;-1.30;99.90
9177;DHT22;4623;54.310;10.112;2022-12-18T13:30:43;-1.40;99.90
9177;DHT22;4623;54.310;10.112;2022-12-18T13:38:34;-1.50;99.90
9177;DHT22;4623;54.310;10.112;2022-12-18T13:43:48;-1.50;99.90
9177;DHT22;4623;54.310;10.112;2022-12-18T13:46:23;-1.50;99.90
9177;DHT22;4623;54.310;10.112;2022-12-18T13:48:55;-1.50;99.90
9177;DHT22;4623;54.310;10.112;2022-12-18T13:51:23;-1.60;99.90
9177;DHT22;4623;54.310;10.112;2022-12-18T13:53:55;-1.60;99.90
9177;DHT22;4623;54.310;10.112;2022-12-18T13:56:25;-1.70;99.90
9177;DHT22;4623;54.310;10.112;2022-12-18T14:01:34;-1.90;99.90
9177;DHT22;4623;54.310;10.112;2022-12-18T14:04:09;-2.00;99.90
9177;DHT22;4623;54.310;10.112;2022-12-18T14:06:35;-2.10;99.90
9177;DHT22;4623;54.310;10.112;2022-12-18T14:09:02;-2.20;99.90
9177;DHT22;4623;54.310;10.112;2022-12-18T14:11:28;-2.10;99.90
9177;DHT22;4623;54.310;10.112;2022-12-18T14:13:54;-2.20;99.90
9177;DHT22;4623;54.310;10.112;2022-12-18T14:16:20;-2.30;99.90
9177;DHT22;4623;54.310;10.112;2022-12-18T14:18:56;-2.40;99.90
9177;DHT22;4623;54.310;10.112;2022-12-18T14:21:26;-2.50;99.90
9177;DHT22;4623;54.310;10.112;2022-12-18T14:24:05;-2.60;99.90
9177;DHT22;4623;54.310;10.112;2022-12-18T14:26:32;-2.60;99.90
9177;DHT22;4623;54.310;10.112;2022-12-18T14:29:00;-2.40;99.90
9177;DHT22;4623;54.310;10.112;2022-12-18T14:31:28;-2.40;99.90
9177;DHT22;4623;54.310;10.112;2022-12-18T14:33:55;-2.50;99.90
9177;DHT22;4623;54.310;10.112;2022-12-18T14:36:24;-2.60;99.90
9177;DHT22;4623;54.310;10.112;2022-12-18T14:38:51;-2.60;99.90
9177;DHT22;4623;54.310;10.112;2022-12-18T14:41:19;-2.70;99.90
9177;DHT22;4623;54.310;10.112;2022-12-18T14:43:47;-2.70;99.90
9177;DHT22;4623;54.310;10.112;2022-12-18T14:48:58;-2.80;99.90
9177;DHT22;4623;54.310;10.112;2022-12-18T14:51:28;-2.80;99.90
9177;DHT22;4623;54.310;10.112;2022-12-18T14:53:58;-2.90;99.90
9177;DHT22;4623;54.310;10.112;2022-12-18T14:56:32;-2.90;99.90
9177;DHT22;4623;54.310;10.112;2022-12-18T14:59:11;-3.00;99.90
9177;DHT22;4623;54.310;10.112;2022-12-18T15:01:44;-3.10;99.90
9177;DHT22;4623;54.310;10.112;2022-12-18T15:07:13;-3.30;99.90
9177;DHT22;4623;54.310;10.112;2022-12-18T15:09:41;-3.30;99.90
9177;DHT22;4623;54.310;10.112;2022-12-18T15:12:26;-3.30;99.90
9177;DHT22;4623;54.310;10.112;2022-12-18T15:14:53;-3.20;99.90
9177;DHT22;4623;54.310;10.112;2022-12-18T15:17:21;-3.10;99.90
9177;DHT22;4623;54.310;10.112;2022-12-18T15:19:49;-3.20;99.90
9177;DHT22;4623;54.310;10.112;2022-12-18T15:22:20;-3.20;99.90
9177;DHT22;4623;54.310;10.112;2022-12-18T15:24:46;-3.10;99.90
9177;DHT22;4623;54.310;10.112;2022-12-18T15:32:39;-3.30;99.90
9177;DHT22;4623;54.310;10.112;2022-12-18T15:37:37;-3.40;99.90
9177;DHT22;4623;54.310;10.112;2022-12-18T15:40:03;-3.40;99.90
9177;DHT22;4623;54.310;10.112;2022-12-18T15:42:29;-3.40;99.90
9177;DHT22;4623;54.310;10.112;2022-12-18T15:45:14;-3.40;99.90
9177;DHT22;4623;54.310;10.112;2022-12-18T15:47:41;-3.40;99.90
9177;DHT22;4623;54.310;10.112;2022-12-18T15:50:08;-3.50;99.90
9177;DHT22;4623;54.310;10.112;2022-12-18T15:52:41;-3.40;99.90
9177;DHT22;4623;54.310;10.112;2022-12-18T15:55:17;-3.40;99.90
9177;DHT22;4623;54.310;10.112;2022-12-18T15:58:04;-3.40;99.90
9177;DHT22;4623;54.310;10.112;2022-12-18T16:00:29;-3.40;99.90
9177;DHT22;4623;54.310;10.112;2022-12-18T16:02:55;-3.50;99.90
9177;DHT22;4623;54.310;10.112;2022-12-18T16:05:21;-3.50;99.90
9177;DHT22;4623;54.310;10.112;2022-12-18T16:07:48;-3.50;99.90
9177;DHT22;4623;54.310;10.112;2022-12-18T16:10:14;-3.50;99.90
9177;DHT22;4623;54.310;10.112;2022-12-18T16:12:40;-3.50;99.90
9177;DHT22;4623;54.310;10.112;2022-12-18T16:15:07;-3.50;99.90
9177;DHT22;4623;54.310;10.112;2022-12-18T16:17:33;-3.40;99.90
9177;DHT22;4623;54.310;10.112;2022-12-18T16:19:58;-3.40;99.90
9177;DHT22;4623;54.310;10.112;2022-12-18T16:22:26;-3.50;99.90
9177;DHT22;4623;54.310;10.112;2022-12-18T16:24:53;-3.50;99.90
9177;DHT22;4623;54.310;10.112;2022-12-18T16:27:20;-3.50;99.90
9177;DHT22;4623;54.310;10.112;2022-12-18T16:29:46;-3.50;99.90
9177;DHT22;4623;54.310;10.112;2022-12-18T16:32:17;-3.50;99.90
9177;DHT22;4623;54.310;10.112;2022-12-18T16:34:43;-3.60;99.90
9177;DHT22;4623;54.310;10.112;2022-12-18T16:37:10;-3.50;99.90
9177;DHT22;4623;54.310;10.112;2022-12-18T16:39:37;-3.50;99.90
9177;DHT22;4623;54.310;10.112;2022-12-18T16:42:06;-3.40;99.90
9177;DHT22;4623;54.310;10.112;2022-12-18T16:44:34;-3.60;99.90
9177;DHT22;4623;54.310;10.112;2022-12-18T16:46:59;-3.50;99.90
9177;DHT22;4623;54.310;10.112;2022-12-18T16:49:27;-3.50;99.90
9177;DHT22;4623;54.310;10.112;2022-12-18T16:51:53;-3.40;99.90
9177;DHT22;4623;54.310;10.112;2022-12-18T16:54:18;-3.40;99.90
9177;DHT22;4623;54.310;10.112;2022-12-18T16:56:44;-3.40;99.90
9177;DHT22;4623;54.310;10.112;2022-12-18T16:59:11;-3.40;99.90
9177;DHT22;4623;54.310;10.112;2022-12-18T17:01:38;-3.40;99.90
9177;DHT22;4623;54.310;10.112;2022-12-18T17:04:05;-3.50;99.90
9177;DHT22;4623;54.310;10.112;2022-12-18T17:06:34;-3.60;99.90
9177;DHT22;4623;54.310;10.112;2022-12-18T17:09:02;-3.60;99.90
9177;DHT22;4623;54.310;10.112;2022-12-18T17:11:30;-3.60;99.90
9177;DHT22;4623;54.310;10.112;2022-12-18T17:13:56;-3.50;99.90
9177;DHT22;4623;54.310;10.112;2022-12-18T17:16:23;-3.50;99.90
9177;DHT22;4623;54.310;10.112;2022-12-18T17:18:49;-3.50;99.90
9177;DHT22;4623;54.310;10.112;2022-12-18T17:21:15;-3.50;99.90
9177;DHT22;4623;54.310;10.112;2022-12-18T17:23:41;-3.40;99.90
9177;DHT22;4623;54.310;10.112;2022-12-18T17:26:11;-3.50;99.90
9177;DHT22;4623;54.310;10.112;2022-12-18T17:28:38;-3.40;99.90